Time;durP1;ratioP1;P1;durP2;ratioP2;P2;SDS_P1;SDS_P2;PMS_P1;PMS_P2;Temp;Humidity;BMP_temperature;BMP_pressure;BME280_temperature;BME280_humidity;BME280_pressure;Samples;Min_cycle;Max_cycle;Signal;HPM_P1;HPM_P2
2022/12/19 00:02:14;;;;;;;84.57;44.33;;;;;;;;;;5019489;28;20528;-76
2022/12/19 00:04:40;;;;;;;76.37;41.73;;;;;;;;;;5012970;28;20461;-77
2022/12/19 00:07:06;;;;;;;76.70;41.33;;;;;;;;;;5016165;28;20507;-79
2022/12/19 00:09:34;;;;;;;79.83;41.90;;;;;;;;;;5015959;28;20438;-78
2022/12/19 00:12:00;;;;;;;81.37;41.53;;;;;;;;;;4983426;28;20989;-80
2022/12/19 00:14:26;;;;;;;76.07;40.13;;;;;;;;;;5012449;28;20458;-79
2022/12/19 00:16:53;;;;;;;66.77;36.90;;;;;;;;;;5013257;28;20440;-75
2022/12/19 00:19:20;;;;;;;71.43;40.00;;;;;;;;;;5003100;28;21801;-73
2022/12/19 00:21:46;;;;;;;78.47;41.87;;;;;;;;;;5004825;28;20457;-83
2022/12/19 00:24:12;;;;;;;72.53;40.37;;;;;;;;;;5010416;28;20492;-78
2022/12/19 00:26:38;;;;;;;80.37;40.20;;;;;;;;;;5015736;28;20179;-78
2022/12/19 00:29:08;;;;;;;68.20;37.20;;;;;;;;;;5018188;28;20445;-78
2022/12/19 00:31:35;;;;;;;62.97;35.47;;;;;;;;;;5007948;28;20473;-78
2022/12/19 00:34:02;;;;;;;68.93;37.60;;;;;;;;;;5016250;28;20434;-78
2022/12/19 00:36:29;;;;;;;70.57;38.73;;;;;;;;;;5012038;28;20850;-79
2022/12/19 00:38:56;;;;;;;67.20;36.67;;;;;;;;;;5009914;28;20473;-79
2022/12/19 00:41:24;;;;;;;69.33;38.17;;;;;;;;;;5005188;28;21037;-79
2022/12/19 00:43:54;;;;;;;74.53;39.57;;;;;;;;;;5006575;28;20438;-78
2022/12/19 00:46:21;;;;;;;78.63;41.30;;;;;;;;;;5005841;28;20203;-79
2022/12/19 00:48:47;;;;;;;78.63;40.87;;;;;;;;;;5005373;28;21044;-77
2022/12/19 00:51:14;;;;;;;73.37;39.97;;;;;;;;;;5003586;28;20490;-76
2022/12/19 00:53:42;;;;;;;70.13;39.90;;;;;;;;;;4989140;28;20450;-78
2022/12/19 00:56:11;;;;;;;75.13;40.23;;;;;;;;;;5005960;28;20426;-78
2022/12/19 00:58:38;;;;;;;72.03;40.13;;;;;;;;;;5005810;28;20456;-77
2022/12/19 01:01:06;;;;;;;73.27;39.33;;;;;;;;;;5008383;28;20454;-76
2022/12/19 01:03:32;;;;;;;78.87;41.20;;;;;;;;;;5008800;28;20488;-77
2022/12/19 01:05:58;;;;;;;79.80;43.37;;;;;;;;;;5007664;28;20427;-77
2022/12/19 01:08:24;;;;;;;78.20;41.97;;;;;;;;;;5005512;28;20450;-75
2022/12/19 01:10:52;;;;;;;67.93;36.40;;;;;;;;;;5005496;28;20458;-76
2022/12/19 01:13:20;;;;;;;74.30;38.27;;;;;;;;;;5008678;28;20496;-76
2022/12/19 01:15:46;;;;;;;74.03;39.97;;;;;;;;;;5003964;28;20187;-77
2022/12/19 01:18:13;;;;;;;74.80;39.67;;;;;;;;;;5006977;28;20458;-76
2022/12/19 01:20:46;;;;;;;74.10;39.23;;;;;;;;;;4989479;28;20264;-78
2022/12/19 01:23:12;;;;;;;78.30;39.20;;;;;;;;;;5004703;28;20435;-78
2022/12/19 01:25:39;;;;;;;69.37;37.37;;;;;;;;;;5007058;28;20504;-78
2022/12/19 01:28:05;;;;;;;73.93;40.50;;;;;;;;;;5002917;28;20425;-79
2022/12/19 01:30:32;;;;;;;77.53;40.63;;;;;;;;;;5003193;28;20207;-77
2022/12/19 01:32:58;;;;;;;75.47;41.77;;;;;;;;;;5009896;28;20248;-77
2022/12/19 01:35:26;;;;;;;80.20;41.77;;;;;;;;;;5015003;28;21066;-77
2022/12/19 01:37:53;;;;;;;84.50;42.93;;;;;;;;;;5012113;28;20220;-77
2022/12/19 01:40:20;;;;;;;75.63;40.63;;;;;;;;;;5011330;28;20631;-78
2022/12/19 01:42:47;;;;;;;78.27;41.50;;;;;;;;;;5009787;28;20195;-76
2022/12/19 01:45:16;;;;;;;82.80;45.28;;;;;;;;;;4997451;28;20426;-77
2022/12/19 01:47:47;;;;;;;74.37;41.47;;;;;;;;;;5007141;28;20210;-77
2022/12/19 01:50:17;;;;;;;77.47;40.70;;;;;;;;;;5005687;28;20948;-78
2022/12/19 01:52:43;;;;;;;77.20;41.63;;;;;;;;;;5007591;28;20481;-77
2022/12/19 01:55:10;;;;;;;67.33;36.93;;;;;;;;;;5008666;28;20478;-77
2022/12/19 01:57:37;;;;;;;78.30;42.40;;;;;;;;;;4979087;28;20453;-77
2022/12/19 02:00:04;;;;;;;68.33;37.30;;;;;;;;;;5018127;28;20186;-77
2022/12/19 02:02:44;;;;;;;66.87;36.43;;;;;;;;;;5012911;28;20428;-81
2022/12/19 02:05:10;;;;;;;69.00;37.53;;;;;;;;;;5003555;28;20533;-78
2022/12/19 02:07:37;;;;;;;74.07;37.67;;;;;;;;;;5019991;28;20430;-77
2022/12/19 02:10:04;;;;;;;69.37;37.73;;;;;;;;;;5010920;28;20441;-76
2022/12/19 02:12:36;;;;;;;67.30;36.07;;;;;;;;;;5008268;28;20417;-76
2022/12/19 02:15:03;;;;;;;67.87;35.67;;;;;;;;;;5016638;28;20261;-76
2022/12/19 02:17:38;;;;;;;66.70;36.97;;;;;;;;;;5017283;28;20454;-77
2022/12/19 02:20:14;;;;;;;66.10;35.90;;;;;;;;;;5014795;28;20175;-78
2022/12/19 02:22:40;;;;;;;69.67;37.30;;;;;;;;;;5008519;28;20434;-77
2022/12/19 02:25:07;;;;;;;68.20;37.23;;;;;;;;;;5006338;28;20423;-77
2022/12/19 02:27:53;;;;;;;68.77;36.10;;;;;;;;;;5007353;28;20446;-76
2022/12/19 02:30:38;;;;;;;68.33;37.60;;;;;;;;;;5010851;28;20820;-79
2022/12/19 02:33:16;;;;;;;71.23;38.20;;;;;;;;;;4996664;28;20180;-77
2022/12/19 02:35:46;;;;;;;68.20;37.03;;;;;;;;;;5015945;28;20271;-77
2022/12/19 02:38:20;;;;;;;64.53;36.37;;;;;;;;;;5007849;28;20617;-77
2022/12/19 02:41:00;;;;;;;75.77;40.23;;;;;;;;;;5007793;28;20756;-76
2022/12/19 02:43:29;;;;;;;70.10;37.87;;;;;;;;;;5009859;28;20179;-77
2022/12/19 02:45:57;;;;;;;70.13;38.23;;;;;;;;;;4995320;28;20781;-76
2022/12/19 02:48:25;;;;;;;72.77;39.07;;;;;;;;;;5010032;28;20422;-77
2022/12/19 02:50:51;;;;;;;71.40;39.27;;;;;;;;;;5010906;28;20215;-76
2022/12/19 02:53:18;;;;;;;70.37;38.30;;;;;;;;;;5003718;28;20422;-78
2022/12/19 02:55:56;;;;;;;71.67;38.90;;;;;;;;;;4973002;28;20438;-78
2022/12/19 02:58:22;;;;;;;70.00;37.40;;;;;;;;;;5005428;28;20210;-77
2022/12/19 03:01:08;;;;;;;67.83;37.27;;;;;;;;;;5008655;28;21019;-76
2022/12/19 03:03:41;;;;;;;71.60;37.93;;;;;;;;;;5004621;28;20171;-77
2022/12/19 03:06:13;;;;;;;69.47;37.27;;;;;;;;;;5007548;28;20717;-77
2022/12/19 03:08:39;;;;;;;69.83;38.30;;;;;;;;;;5012584;28;20189;-76
2022/12/19 03:11:07;;;;;;;69.83;37.43;;;;;;;;;;5017487;28;20457;-76
2022/12/19 03:13:36;;;;;;;64.10;35.00;;;;;;;;;;5002146;28;20175;-76
2022/12/19 03:16:04;;;;;;;65.10;33.73;;;;;;;;;;4986909;28;20395;-77
2022/12/19 03:18:31;;;;;;;67.73;36.57;;;;;;;;;;5008429;28;20490;-77
2022/12/19 03:21:04;;;;;;;72.93;38.33;;;;;;;;;;5011891;28;20197;-77
2022/12/19 03:23:31;;;;;;;66.67;36.40;;;;;;;;;;5009077;28;20179;-78
2022/12/19 03:26:00;;;;;;;68.77;36.03;;;;;;;;;;5008950;28;20438;-77
2022/12/19 03:28:29;;;;;;;64.07;35.43;;;;;;;;;;5010384;28;20520;-77
2022/12/19 03:30:57;;;;;;;72.20;37.97;;;;;;;;;;5006269;28;20454;-80
2022/12/19 03:33:24;;;;;;;67.40;36.77;;;;;;;;;;5010429;28;20183;-77
2022/12/19 03:35:51;;;;;;;70.57;38.20;;;;;;;;;;5011021;28;20277;-77
2022/12/19 03:38:20;;;;;;;63.23;34.50;;;;;;;;;;5020565;28;20593;-77
2022/12/19 03:40:46;;;;;;;63.93;33.93;;;;;;;;;;5009844;28;20222;-76
2022/12/19 03:43:13;;;;;;;60.40;32.80;;;;;;;;;;5011147;28;20191;-77
2022/12/19 03:45:40;;;;;;;62.37;35.23;;;;;;;;;;5007209;28;20469;-81
2022/12/19 03:48:08;;;;;;;70.67;37.33;;;;;;;;;;5017576;28;20528;-78
2022/12/19 03:50:43;;;;;;;64.97;36.47;;;;;;;;;;5007806;28;20985;-78
2022/12/19 03:53:24;;;;;;;62.73;34.20;;;;;;;;;;5007271;28;20444;-77
2022/12/19 03:55:55;;;;;;;69.23;37.40;;;;;;;;;;5007371;28;20269;-77
2022/12/19 03:58:33;;;;;;;65.23;35.43;;;;;;;;;;5006760;28;20553;-77
2022/12/19 04:01:01;;;;;;;62.50;34.33;;;;;;;;;;5013452;28;20221;-77
2022/12/19 04:03:28;;;;;;;65.73;36.23;;;;;;;;;;5001754;28;20462;-77
2022/12/19 04:05:55;;;;;;;66.90;36.20;;;;;;;;;;5011180;28;20422;-76
2022/12/19 04:08:22;;;;;;;60.77;34.13;;;;;;;;;;5004016;28;20184;-79
2022/12/19 04:10:55;;;;;;;62.07;35.20;;;;;;;;;;5003609;28;20203;-79
2022/12/19 04:13:27;;;;;;;59.20;33.23;;;;;;;;;;5013564;28;20258;-77
2022/12/19 04:16:11;;;;;;;64.77;35.97;;;;;;;;;;5023479;28;20425;-76
2022/12/19 04:18:39;;;;;;;65.63;36.77;;;;;;;;;;4987036;28;20476;-76
2022/12/19 04:21:27;;;;;;;62.40;35.80;;;;;;;;;;5007152;28;20191;-76
2022/12/19 04:23:57;;;;;;;62.60;34.87;;;;;;;;;;5008890;28;20175;-77
2022/12/19 04:26:24;;;;;;;64.90;35.67;;;;;;;;;;5000288;28;20427;-77
2022/12/19 04:28:52;;;;;;;66.27;35.90;;;;;;;;;;5009301;28;20212;-77
2022/12/19 04:31:19;;;;;;;62.67;32.80;;;;;;;;;;5010384;28;20245;-76
2022/12/19 04:33:45;;;;;;;58.00;31.47;;;;;;;;;;5019993;28;20441;-78
2022/12/19 04:36:12;;;;;;;63.40;34.87;;;;;;;;;;5008774;28;20191;-78
2022/12/19 04:38:38;;;;;;;57.50;33.13;;;;;;;;;;5011910;28;20949;-77
2022/12/19 04:41:04;;;;;;;59.93;34.87;;;;;;;;;;5010578;28;20468;-77
2022/12/19 04:43:30;;;;;;;64.83;34.20;;;;;;;;;;5003963;28;20359;-77
2022/12/19 04:45:56;;;;;;;57.13;30.97;;;;;;;;;;5012656;28;20646;-77
2022/12/19 04:48:22;;;;;;;58.70;32.27;;;;;;;;;;5007577;28;20241;-76
2022/12/19 04:50:49;;;;;;;57.43;33.03;;;;;;;;;;5011188;28;20233;-77
2022/12/19 04:53:20;;;;;;;59.03;33.87;;;;;;;;;;5012532;28;20253;-77
2022/12/19 04:55:46;;;;;;;61.87;34.53;;;;;;;;;;5005161;28;20190;-77
2022/12/19 04:58:12;;;;;;;63.50;35.07;;;;;;;;;;5003429;28;20294;-79
2022/12/19 05:00:38;;;;;;;63.07;36.67;;;;;;;;;;5009029;28;20699;-77
2022/12/19 05:03:04;;;;;;;67.43;35.83;;;;;;;;;;5010640;28;20179;-77
2022/12/19 05:05:31;;;;;;;61.67;32.87;;;;;;;;;;5020252;28;20182;-77
2022/12/19 05:07:57;;;;;;;61.80;33.27;;;;;;;;;;5007605;28;20682;-77
2022/12/19 05:10:23;;;;;;;60.60;32.20;;;;;;;;;;5015434;28;20282;-77
2022/12/19 05:12:49;;;;;;;58.90;31.33;;;;;;;;;;5010587;28;20207;-76
2022/12/19 05:15:15;;;;;;;56.10;30.33;;;;;;;;;;5019974;28;20697;-77
2022/12/19 05:17:42;;;;;;;58.37;30.50;;;;;;;;;;5009160;28;20213;-77
2022/12/19 05:20:08;;;;;;;56.40;29.93;;;;;;;;;;5013369;28;20714;-78
2022/12/19 05:22:34;;;;;;;48.47;26.80;;;;;;;;;;5018669;28;20201;-77
2022/12/19 05:25:00;;;;;;;53.33;28.03;;;;;;;;;;5005864;28;20269;-77
2022/12/19 05:27:27;;;;;;;49.20;27.23;;;;;;;;;;5012358;28;20186;-78
2022/12/19 05:29:53;;;;;;;51.03;26.90;;;;;;;;;;5005614;28;20194;-77
2022/12/19 05:32:19;;;;;;;50.57;28.10;;;;;;;;;;5009212;28;20210;-76
2022/12/19 05:34:45;;;;;;;52.77;27.80;;;;;;;;;;5009894;28;20557;-77
2022/12/19 05:37:11;;;;;;;52.80;27.83;;;;;;;;;;5008530;28;20184;-79
2022/12/19 05:39:38;;;;;;;45.40;24.67;;;;;;;;;;5006733;28;20566;-78
2022/12/19 05:42:04;;;;;;;44.70;25.37;;;;;;;;;;5006303;28;20227;-77
2022/12/19 05:44:30;;;;;;;50.63;26.27;;;;;;;;;;4986283;28;20239;-76
2022/12/19 05:46:56;;;;;;;50.93;27.03;;;;;;;;;;5005372;28;20270;-76
2022/12/19 05:49:22;;;;;;;46.67;24.87;;;;;;;;;;5010693;28;20209;-77
2022/12/19 05:51:49;;;;;;;52.50;27.43;;;;;;;;;;5006866;28;20202;-77
2022/12/19 05:54:15;;;;;;;48.57;27.37;;;;;;;;;;5006979;28;20179;-78
2022/12/19 05:56:41;;;;;;;51.47;26.97;;;;;;;;;;5000629;28;21471;-77
2022/12/19 05:59:07;;;;;;;50.75;30.90;;;;;;;;;;5009880;28;20440;-77
2022/12/19 06:01:33;;;;;;;45.43;26.37;;;;;;;;;;5004973;28;20693;-76
2022/12/19 06:04:00;;;;;;;50.03;26.63;;;;;;;;;;5008584;28;20172;-77
2022/12/19 06:06:26;;;;;;;46.67;30.02;;;;;;;;;;5003212;28;20550;-79
2022/12/19 06:08:56;;;;;;;45.87;27.00;;;;;;;;;;5006662;28;20868;-79
2022/12/19 06:11:23;;;;;;;50.13;27.63;;;;;;;;;;5010491;28;20222;-74
2022/12/19 06:13:49;;;;;;;52.47;31.95;;;;;;;;;;5001320;28;20432;-75
2022/12/19 06:16:17;;;;;;;48.27;29.17;;;;;;;;;;4998330;28;20197;-75
2022/12/19 06:18:44;;;;;;;46.37;27.30;;;;;;;;;;4999377;28;20214;-75
2022/12/19 06:21:11;;;;;;;50.92;32.65;;;;;;;;;;5003226;28;21132;-73
2022/12/19 06:23:38;;;;;;;53.10;29.97;;;;;;;;;;5005618;28;20183;-74
2022/12/19 06:26:05;;;;;;;46.90;28.83;;;;;;;;;;5001766;28;20799;-73
2022/12/19 06:28:31;;;;;;;47.47;27.17;;;;;;;;;;5006418;28;20195;-74
2022/12/19 06:31:01;;;;;;;44.13;24.57;;;;;;;;;;5000651;28;20196;-73
2022/12/19 06:33:29;;;;;;;46.67;29.90;;;;;;;;;;5003308;28;20486;-73
2022/12/19 06:36:02;;;;;;;45.23;25.50;;;;;;;;;;5001389;28;20193;-73
2022/12/19 06:38:29;;;;;;;43.28;27.42;;;;;;;;;;4998811;28;20443;-73
2022/12/19 06:43:41;;;;;;;42.00;27.38;;;;;;;;;;5004361;28;20427;-73
2022/12/19 06:46:07;;;;;;;45.58;27.48;;;;;;;;;;4999735;28;20432;-73
2022/12/19 06:48:33;;;;;;;46.50;26.13;;;;;;;;;;5005763;28;20269;-73
2022/12/19 06:50:59;;;;;;;46.93;25.57;;;;;;;;;;5006920;28;20204;-73
2022/12/19 06:53:26;;;;;;;45.45;28.67;;;;;;;;;;4999785;28;20454;-77
2022/12/19 06:55:54;;;;;;;47.97;27.70;;;;;;;;;;5005447;28;20190;-75
2022/12/19 06:58:20;;;;;;;45.70;29.27;;;;;;;;;;5006478;28;20457;-77
2022/12/19 07:00:46;;;;;;;43.83;25.43;;;;;;;;;;5003144;28;20206;-75
2022/12/19 07:03:13;;;;;;;44.90;28.75;;;;;;;;;;5003349;28;20462;-75
2022/12/19 07:05:39;;;;;;;46.03;26.93;;;;;;;;;;5008257;28;20184;-76
2022/12/19 07:08:07;;;;;;;44.50;24.90;;;;;;;;;;5012121;28;20215;-75
2022/12/19 07:10:33;;;;;;;40.63;23.83;;;;;;;;;;5004137;28;20577;-75
2022/12/19 07:12:59;;;;;;;45.47;24.30;;;;;;;;;;5003223;28;20190;-75
2022/12/19 07:15:26;;;;;;;42.87;24.03;;;;;;;;;;4996318;28;20271;-76
2022/12/19 07:17:52;;;;;;;43.60;24.77;;;;;;;;;;5004664;28;20204;-75
2022/12/19 07:20:19;;;;;;;45.37;25.20;;;;;;;;;;5003971;28;20233;-75
2022/12/19 07:22:45;;;;;;;44.90;24.80;;;;;;;;;;5006070;28;20176;-75
2022/12/19 07:25:11;;;;;;;46.33;25.97;;;;;;;;;;4998700;28;20182;-75
2022/12/19 07:27:37;;;;;;;45.53;25.10;;;;;;;;;;5008261;28;20189;-78
2022/12/19 07:30:05;;;;;;;45.10;25.37;;;;;;;;;;5002197;28;20199;-79
2022/12/19 07:32:31;;;;;;;37.73;21.27;;;;;;;;;;5002399;28;20183;-75
2022/12/19 07:34:57;;;;;;;37.93;21.10;;;;;;;;;;5005558;28;20250;-75
2022/12/19 07:37:23;;;;;;;43.50;22.57;;;;;;;;;;5014968;28;20190;-75
2022/12/19 07:39:49;;;;;;;40.77;22.03;;;;;;;;;;5002074;28;20186;-75
2022/12/19 07:42:15;;;;;;;42.73;24.77;;;;;;;;;;5005012;28;20207;-75
2022/12/19 07:44:41;;;;;;;47.03;26.10;;;;;;;;;;5002498;28;20172;-76
2022/12/19 07:47:08;;;;;;;47.03;26.20;;;;;;;;;;5004719;28;20199;-75
2022/12/19 07:49:34;;;;;;;38.67;21.87;;;;;;;;;;5004486;28;20221;-77
2022/12/19 07:52:00;;;;;;;43.40;22.77;;;;;;;;;;5004211;28;20200;-76
2022/12/19 07:54:26;;;;;;;38.40;22.27;;;;;;;;;;5013419;28;20528;-75
2022/12/19 07:56:52;;;;;;;38.70;21.83;;;;;;;;;;5010822;28;20186;-76
2022/12/19 07:59:19;;;;;;;39.57;22.83;;;;;;;;;;5004782;28;20289;-75
2022/12/19 08:01:45;;;;;;;38.77;22.13;;;;;;;;;;5005389;28;20205;-75
2022/12/19 08:04:12;;;;;;;40.80;22.93;;;;;;;;;;4997929;28;20552;-75
2022/12/19 08:06:38;;;;;;;39.47;22.13;;;;;;;;;;5007170;28;20208;-75
2022/12/19 08:09:04;;;;;;;38.63;21.27;;;;;;;;;;5006948;28;20195;-75
2022/12/19 08:11:31;;;;;;;42.33;22.10;;;;;;;;;;5007606;28;20999;-74
2022/12/19 08:13:57;;;;;;;36.73;21.20;;;;;;;;;;5014681;28;20708;-77
2022/12/19 08:16:24;;;;;;;42.97;24.00;;;;;;;;;;5017972;28;20187;-76
2022/12/19 08:18:50;;;;;;;43.33;24.30;;;;;;;;;;5005310;28;20540;-74
2022/12/19 08:21:16;;;;;;;42.00;22.53;;;;;;;;;;5007202;28;20192;-75
2022/12/19 08:23:44;;;;;;;41.30;22.03;;;;;;;;;;5010748;28;20708;-75
2022/12/19 08:26:12;;;;;;;40.90;22.77;;;;;;;;;;5001423;28;20188;-75
2022/12/19 08:28:38;;;;;;;38.23;22.17;;;;;;;;;;5006069;28;20207;-75
2022/12/19 08:31:16;;;;;;;44.07;25.70;;;;;;;;;;5015350;28;20199;-74
2022/12/19 08:33:42;;;;;;;43.23;24.40;;;;;;;;;;5003830;28;20190;-76
2022/12/19 08:36:10;;;;;;;42.83;23.63;;;;;;;;;;5011759;28;20190;-75
2022/12/19 08:38:38;;;;;;;41.23;24.53;;;;;;;;;;4999442;28;20204;-75
2022/12/19 08:41:05;;;;;;;45.47;26.10;;;;;;;;;;5011097;28;20248;-76
2022/12/19 08:43:31;;;;;;;50.00;28.00;;;;;;;;;;5004020;28;20203;-75
2022/12/19 08:45:57;;;;;;;44.33;24.40;;;;;;;;;;4999603;28;20168;-75
2022/12/19 08:48:24;;;;;;;46.10;25.47;;;;;;;;;;5003539;28;20664;-75
2022/12/19 08:50:50;;;;;;;49.40;27.67;;;;;;;;;;5001464;28;20769;-78
2022/12/19 08:53:16;;;;;;;45.07;27.50;;;;;;;;;;4997952;28;20189;-77
2022/12/19 08:55:42;;;;;;;41.07;24.40;;;;;;;;;;4998605;28;20238;-75
2022/12/19 08:58:08;;;;;;;45.20;25.50;;;;;;;;;;4997631;28;20855;-75
2022/12/19 09:00:35;;;;;;;43.67;25.33;;;;;;;;;;5005027;28;20199;-77
2022/12/19 09:03:01;;;;;;;40.20;23.27;;;;;;;;;;5022303;28;20246;-74
2022/12/19 09:05:27;;;;;;;39.07;22.80;;;;;;;;;;5008144;28;20225;-75
2022/12/19 09:07:54;;;;;;;37.70;22.57;;;;;;;;;;4998464;28;20279;-74
2022/12/19 09:10:20;;;;;;;37.67;21.63;;;;;;;;;;4996102;28;20210;-74
2022/12/19 09:12:46;;;;;;;38.10;22.37;;;;;;;;;;4999967;28;20187;-74
2022/12/19 09:15:12;;;;;;;40.30;21.57;;;;;;;;;;5014753;28;20512;-74
2022/12/19 09:17:39;;;;;;;39.20;22.93;;;;;;;;;;5005654;28;20199;-73
2022/12/19 09:20:05;;;;;;;39.13;21.77;;;;;;;;;;4989781;28;20198;-75
2022/12/19 09:22:31;;;;;;;40.30;22.97;;;;;;;;;;5001317;28;20180;-74
2022/12/19 09:24:57;;;;;;;38.33;22.90;;;;;;;;;;4998185;28;20179;-74
2022/12/19 09:27:23;;;;;;;43.50;23.77;;;;;;;;;;4998455;28;20241;-74
2022/12/19 09:29:49;;;;;;;44.57;24.20;;;;;;;;;;4990096;28;20226;-74
2022/12/19 09:32:16;;;;;;;40.63;23.30;;;;;;;;;;5004265;28;20282;-74
2022/12/19 09:34:42;;;;;;;44.20;25.43;;;;;;;;;;4991327;28;20770;-74
2022/12/19 09:37:09;;;;;;;39.73;23.40;;;;;;;;;;4997177;28;20179;-74
2022/12/19 09:39:35;;;;;;;40.27;22.87;;;;;;;;;;5000117;28;20354;-74
2022/12/19 09:42:14;;;;;;;38.73;22.20;;;;;;;;;;4997924;28;20647;-74
2022/12/19 09:44:46;;;;;;;39.70;22.67;;;;;;;;;;5005055;28;20183;-76
2022/12/19 09:47:14;;;;;;;36.87;21.63;;;;;;;;;;4997960;28;20192;-74
2022/12/19 09:49:45;;;;;;;34.00;20.40;;;;;;;;;;5010220;28;20191;-75
2022/12/19 09:52:15;;;;;;;38.37;20.83;;;;;;;;;;5000043;28;20203;-75
2022/12/19 09:54:44;;;;;;;38.37;22.33;;;;;;;;;;5004519;28;20210;-74
2022/12/19 09:57:22;;;;;;;38.07;22.57;;;;;;;;;;5016435;28;20179;-74
2022/12/19 09:59:55;;;;;;;36.87;20.87;;;;;;;;;;5008721;28;20566;-74
2022/12/19 10:02:37;;;;;;;42.27;24.63;;;;;;;;;;4999940;28;20203;-74
2022/12/19 10:05:08;;;;;;;39.40;22.57;;;;;;;;;;5005634;28;20202;-72
2022/12/19 10:07:35;;;;;;;39.73;22.23;;;;;;;;;;5004267;28;20266;-75
2022/12/19 10:10:01;;;;;;;37.97;21.57;;;;;;;;;;5002823;28;20187;-76
2022/12/19 10:12:47;;;;;;;35.20;21.93;;;;;;;;;;5010629;28;20187;-74
2022/12/19 10:15:25;;;;;;;38.77;21.77;;;;;;;;;;5006949;28;20199;-74
2022/12/19 10:17:57;;;;;;;35.97;20.70;;;;;;;;;;5018098;28;20210;-76
2022/12/19 10:20:27;;;;;;;38.63;22.57;;;;;;;;;;5006332;28;20199;-76
2022/12/19 10:22:59;;;;;;;35.67;20.27;;;;;;;;;;5024032;28;20271;-74
2022/12/19 10:25:34;;;;;;;36.53;21.50;;;;;;;;;;5007744;28;20667;-77
2022/12/19 10:28:05;;;;;;;37.87;22.50;;;;;;;;;;5003295;28;20644;-74
2022/12/19 10:30:36;;;;;;;38.70;22.93;;;;;;;;;;5000624;28;20205;-76
2022/12/19 10:33:02;;;;;;;40.50;23.80;;;;;;;;;;5002505;28;20190;-75
2022/12/19 10:35:42;;;;;;;39.07;24.20;;;;;;;;;;4996052;28;20399;-74
2022/12/19 10:38:08;;;;;;;39.63;23.07;;;;;;;;;;4999552;28;20302;-75
2022/12/19 10:40:38;;;;;;;40.33;23.00;;;;;;;;;;5002610;28;20290;-74
2022/12/19 10:43:23;;;;;;;34.20;20.73;;;;;;;;;;4998370;28;20175;-75
2022/12/19 10:45:51;;;;;;;37.83;22.57;;;;;;;;;;4998268;28;20559;-74
2022/12/19 10:48:19;;;;;;;35.83;21.57;;;;;;;;;;5003900;28;20230;-74
2022/12/19 10:50:46;;;;;;;36.60;21.00;;;;;;;;;;4998618;28;20215;-74
2022/12/19 10:53:13;;;;;;;37.43;22.30;;;;;;;;;;4999506;28;20182;-74
2022/12/19 10:55:46;;;;;;;36.50;21.37;;;;;;;;;;4991519;28;20192;-75
2022/12/19 10:58:32;;;;;;;33.47;20.23;;;;;;;;;;5004333;28;20928;-74
2022/12/19 11:01:04;;;;;;;33.93;20.93;;;;;;;;;;5002208;28;20261;-75
2022/12/19 11:03:31;;;;;;;34.63;20.90;;;;;;;;;;4998814;28;20289;-75
2022/12/19 11:05:57;;;;;;;35.33;20.10;;;;;;;;;;5001087;28;20184;-75
2022/12/19 11:08:26;;;;;;;34.60;20.47;;;;;;;;;;4996984;28;20187;-75
2022/12/19 11:10:56;;;;;;;32.87;19.90;;;;;;;;;;4998507;28;20203;-75
2022/12/19 11:13:25;;;;;;;28.27;17.90;;;;;;;;;;4999509;28;20215;-76
2022/12/19 11:15:57;;;;;;;31.70;18.90;;;;;;;;;;4993406;28;20205;-75
2022/12/19 11:18:23;;;;;;;33.23;20.00;;;;;;;;;;4999581;28;20253;-77
2022/12/19 11:20:54;;;;;;;33.00;19.97;;;;;;;;;;4996399;28;20248;-74
2022/12/19 11:23:20;;;;;;;33.67;20.57;;;;;;;;;;5007866;28;20187;-76
2022/12/19 11:25:52;;;;;;;32.90;19.10;;;;;;;;;;4996939;28;20638;-76
2022/12/19 11:28:24;;;;;;;33.50;19.43;;;;;;;;;;4998292;28;20187;-75
2022/12/19 11:31:09;;;;;;;37.53;21.33;;;;;;;;;;5004377;28;20214;-78
2022/12/19 11:33:36;;;;;;;34.60;21.17;;;;;;;;;;5003710;28;20180;-77
2022/12/19 11:36:03;;;;;;;36.83;22.40;;;;;;;;;;5003839;28;20183;-78
2022/12/19 11:38:36;;;;;;;37.87;21.63;;;;;;;;;;5008122;28;20870;-75
2022/12/19 11:41:14;;;;;;;36.83;22.17;;;;;;;;;;5005758;28;20215;-77
2022/12/19 11:43:52;;;;;;;32.27;20.83;;;;;;;;;;4998503;28;20172;-76
2022/12/19 11:46:30;;;;;;;33.17;20.97;;;;;;;;;;5003070;28;20202;-77
2022/12/19 11:49:00;;;;;;;33.47;20.77;;;;;;;;;;5004437;28;20183;-72
2022/12/19 11:51:26;;;;;;;35.07;21.07;;;;;;;;;;5007528;28;20203;-73
2022/12/19 11:54:04;;;;;;;34.70;21.13;;;;;;;;;;5000057;28;20191;-72
2022/12/19 11:56:30;;;;;;;31.97;21.07;;;;;;;;;;5003143;28;20199;-72
2022/12/19 11:58:59;;;;;;;36.43;22.30;;;;;;;;;;5015669;28;20249;-73
2022/12/19 12:01:39;;;;;;;35.87;21.47;;;;;;;;;;4997882;28;20192;-73
2022/12/19 12:04:21;;;;;;;33.77;20.73;;;;;;;;;;5006752;28;20184;-73
2022/12/19 12:06:51;;;;;;;29.30;18.40;;;;;;;;;;5019664;28;20190;-72
2022/12/19 12:09:53;;;;;;;32.80;18.87;;;;;;;;;;5020375;28;20241;-75
2022/12/19 12:12:19;;;;;;;28.63;17.67;;;;;;;;;;4947047;28;20646;-72
2022/12/19 12:15:04;;;;;;;29.57;18.03;;;;;;;;;;4987826;28;20682;-73
2022/12/19 12:17:39;;;;;;;27.43;17.47;;;;;;;;;;5011007;28;20183;-73
2022/12/19 12:20:17;;;;;;;27.37;17.10;;;;;;;;;;5013602;28;20263;-73
2022/12/19 12:22:44;;;;;;;29.40;18.27;;;;;;;;;;5019234;28;20728;-72
2022/12/19 12:25:17;;;;;;;29.83;18.73;;;;;;;;;;5016518;28;20175;-73
2022/12/19 12:27:50;;;;;;;27.70;16.77;;;;;;;;;;5010912;28;20235;-74
2022/12/19 12:30:18;;;;;;;28.03;17.83;;;;;;;;;;5003713;28;20190;-72
2022/12/19 12:33:01;;;;;;;29.53;17.37;;;;;;;;;;5006591;28;20203;-73
2022/12/19 12:35:33;;;;;;;27.53;17.10;;;;;;;;;;5007493;28;20270;-73
2022/12/19 12:38:05;;;;;;;27.50;17.57;;;;;;;;;;5021163;28;20203;-73
2022/12/19 12:40:50;;;;;;;26.20;17.17;;;;;;;;;;5008777;28;20689;-74
2022/12/19 12:43:19;;;;;;;28.27;18.43;;;;;;;;;;5011960;28;20624;-75
2022/12/19 12:45:45;;;;;;;28.70;19.37;;;;;;;;;;5009718;28;20187;-74
2022/12/19 12:48:24;;;;;;;30.70;20.40;;;;;;;;;;5016391;28;20179;-74
2022/12/19 12:50:51;;;;;;;34.03;21.60;;;;;;;;;;5018867;28;20264;-77
2022/12/19 12:53:18;;;;;;;32.47;21.40;;;;;;;;;;5013447;28;20194;-76
2022/12/19 12:55:45;;;;;;;31.23;19.70;;;;;;;;;;5011079;28;20187;-76
2022/12/19 12:58:47;;;;;;;31.60;19.37;;;;;;;;;;5008223;28;20237;-76
2022/12/19 13:01:16;;;;;;;37.27;22.87;;;;;;;;;;4975731;28;20208;-76
2022/12/19 13:03:50;;;;;;;34.27;21.50;;;;;;;;;;5018294;28;20191;-77
2022/12/19 13:06:19;;;;;;;89.63;60.50;;;;;;;;;;5001841;28;20190;-76
2022/12/19 13:08:46;;;;;;;65.73;44.30;;;;;;;;;;4992447;28;20211;-76
2022/12/19 13:14:05;;;;;;;50.60;35.10;;;;;;;;;;4968982;28;20249;-75
2022/12/19 13:16:43;;;;;;;46.03;30.17;;;;;;;;;;5001065;28;20599;-76
2022/12/19 13:19:15;;;;;;;40.80;27.97;;;;;;;;;;5003103;28;20735;-75
2022/12/19 13:22:00;;;;;;;37.90;25.57;;;;;;;;;;5005583;28;20195;-78
2022/12/19 13:24:37;;;;;;;37.20;24.33;;;;;;;;;;5007558;28;20184;-76
2022/12/19 13:27:03;;;;;;;34.83;24.13;;;;;;;;;;5007307;28;20266;-75
2022/12/19 13:29:33;;;;;;;34.80;23.20;;;;;;;;;;5009554;28;20317;-77
2022/12/19 13:32:14;;;;;;;32.90;21.90;;;;;;;;;;5006194;28;20211;-75
2022/12/19 13:34:50;;;;;;;31.00;20.37;;;;;;;;;;5016852;28;20175;-74
2022/12/19 13:37:19;;;;;;;35.70;22.90;;;;;;;;;;5010222;28;20179;-74
2022/12/19 13:39:51;;;;;;;38.10;24.20;;;;;;;;;;5015688;28;20206;-75
2022/12/19 13:45:13;;;;;;;27.23;18.37;;;;;;;;;;5007260;28;20187;-75
2022/12/19 13:47:41;;;;;;;27.43;17.33;;;;;;;;;;4996201;28;20764;-75
2022/12/19 13:50:31;;;;;;;27.53;20.20;;;;;;;;;;5005902;28;20652;-74
2022/12/19 13:52:57;;;;;;;30.50;19.40;;;;;;;;;;4999233;28;20199;-74
2022/12/19 13:55:24;;;;;;;29.53;19.90;;;;;;;;;;4981821;28;20317;-74
2022/12/19 13:57:54;;;;;;;29.53;18.27;;;;;;;;;;5008419;28;20221;-76
2022/12/19 14:00:22;;;;;;;22.73;15.57;;;;;;;;;;5006487;28;21620;-77
2022/12/19 14:02:58;;;;;;;28.00;18.30;;;;;;;;;;4996273;28;20872;-75
2022/12/19 14:05:27;;;;;;;29.47;20.27;;;;;;;;;;4999177;28;20172;-76
2022/12/19 14:07:53;;;;;;;30.53;21.50;;;;;;;;;;5000819;28;20239;-76
2022/12/19 14:10:27;;;;;;;31.20;20.83;;;;;;;;;;5005692;28;21940;-76
2022/12/19 14:15:41;;;;;;;28.97;19.60;;;;;;;;;;5011023;28;20175;-77
2022/12/19 14:18:16;;;;;;;30.93;20.47;;;;;;;;;;4995987;28;20223;-76
2022/12/19 14:20:42;;;;;;;31.33;19.87;;;;;;;;;;4978288;28;20203;-76
2022/12/19 14:23:09;;;;;;;30.40;19.60;;;;;;;;;;5010533;28;20170;-76
2022/12/19 14:25:47;;;;;;;32.37;20.70;;;;;;;;;;5000672;28;20491;-77
2022/12/19 14:28:37;;;;;;;30.83;21.30;;;;;;;;;;4998933;28;20176;-76
2022/12/19 14:31:06;;;;;;;30.63;20.40;;;;;;;;;;4991255;28;20215;-76
2022/12/19 14:33:33;;;;;;;37.27;21.13;;;;;;;;;;4997889;28;20622;-76
2022/12/19 14:35:59;;;;;;;35.87;22.40;;;;;;;;;;4992136;28;20186;-76
2022/12/19 14:38:27;;;;;;;34.50;22.27;;;;;;;;;;5005461;28;20252;-76
2022/12/19 14:40:54;;;;;;;37.70;22.23;;;;;;;;;;5000040;28;20234;-77